Bement, Illinois
Current Conditions -  °F | °C
As of 5:54 AM on Monday 20 Oct 2014 (Local Time) from KDEC Reporting Station
Overcast Overcast  
Wind Chill: 53°   Ceiling: 6000
Heat Index: 53°   Visibility: 10mi
Dew Point: 47°   Wind: 10mph
Humidity: 80%   Direction: 220°SW
Pressure: 29.91"   Gusts: NA
Location:  39.92°N, 88.57°W
Report Text: KDEC 201054Z 22009KT 10SM OVC060 12/08 A2991 RMK AO2 SLP129 T01170083
Loading
Personal Weather Stations






























Interactive Weather Map
Tropical Storm Tracking
New forecast layout! Learn more

10-Day Weather Forecast

Advertisements
Track Severe Weather on mobile